Time;durP1;ratioP1;P1;durP2;ratioP2;P2;SDS_P1;SDS_P2;PMS_P1;PMS_P2;Temp;Humidity;BMP_temperature;BMP_pressure;BME280_temperature;BME280_humidity;BME280_pressure;Samples;Min_cycle;Max_cycle;Signal;HPM_P1;HPM_P2
2023/12/22 00:01:15;;;;;;;;;;;;;;;5.77;100.00;95276.34;5066119;28;20019;-73
2023/12/22 00:03:47;;;;;;;;;;;;;;;5.79;100.00;95272.53;5066084;28;19962;-69
2023/12/22 00:06:12;;;;;;;;;;;;;;;5.80;100.00;95268.94;5065674;28;19954;-70
2023/12/22 00:08:38;;;;;;;;;;;;;;;5.82;100.00;95274.72;5047774;28;19972;-70
2023/12/22 00:11:04;;;;;;;;;;;;;;;5.84;100.00;95277.88;5065919;28;19953;-71
2023/12/22 00:13:32;;;;;;;;;;;;;;;5.88;100.00;95270.47;5065943;28;19941;-70
2023/12/22 00:15:58;;;;;;;;;;;;;;;5.92;100.00;95268.19;5065624;28;19958;-70
2023/12/22 00:18:24;;;;;;;;;;;;;;;5.98;100.00;95280.38;5065622;28;19963;-76
2023/12/22 00:20:50;;;;;;;;;;;;;;;6.01;100.00;95287.75;5065644;28;19958;-65
2023/12/22 00:23:16;;;;;;;;;;;;;;;6.01;100.00;95296.34;5065727;28;19963;-66
2023/12/22 00:25:42;;;;;;;;;;;;;;;6.02;100.00;95278.91;5065811;28;20208;-66
2023/12/22 00:28:08;;;;;;;;;;;;;;;6.01;100.00;95272.94;5065111;28;20023;-65
2023/12/22 00:30:33;;;;;;;;;;;;;;;6.01;100.00;95275.53;5065202;28;19968;-66
2023/12/22 00:32:59;;;;;;;;;;;;;;;6.03;100.00;95272.72;5064791;28;19976;-66
2023/12/22 00:35:25;;;;;;;;;;;;;;;6.01;100.00;95300.75;5065008;28;19965;-75
2023/12/22 00:37:52;;;;;;;;;;;;;;;6.01;100.00;95332.78;5065303;28;19957;-73
2023/12/22 00:40:18;;;;;;;;;;;;;;;6.02;100.00;95323.16;5065453;28;19966;-72
2023/12/22 00:42:44;;;;;;;;;;;;;;;6.02;100.00;95325.75;5065007;28;19993;-73
2023/12/22 00:45:10;;;;;;;;;;;;;;;6.06;100.00;95313.91;5064637;28;20183;-73
2023/12/22 00:47:36;;;;;;;;;;;;;;;6.06;100.00;95309.50;5065156;28;19952;-73
2023/12/22 00:50:04;;;;;;;;;;;;;;;6.04;100.00;95298.50;5065178;28;19967;-72
2023/12/22 00:52:30;;;;;;;;;;;;;;;6.05;100.00;95281.91;5064930;28;19962;-72
2023/12/22 00:54:56;;;;;;;;;;;;;;;6.02;100.00;95300.53;5064160;28;19945;-72
2023/12/22 00:57:22;;;;;;;;;;;;;;;6.02;100.00;95310.94;5065022;28;19960;-72
2023/12/22 00:59:48;;;;;;;;;;;;;;;6.06;100.00;95312.09;5064551;28;20115;-73
2023/12/22 01:02:14;;;;;;;;;;;;;;;6.07;100.00;95311.09;5064368;28;19966;-73
2023/12/22 01:04:40;;;;;;;;;;;;;;;6.06;100.00;95306.88;5064479;28;20259;-73
2023/12/22 01:07:10;;;;;;;;;;;;;;;6.00;100.00;95306.97;5064754;28;19963;-72
2023/12/22 01:09:37;;;;;;;;;;;;;;;5.90;100.00;95304.84;5064557;28;19967;-73
2023/12/22 01:12:04;;;;;;;;;;;;;;;5.80;100.00;95320.16;5064569;28;19968;-73
2023/12/22 01:14:30;;;;;;;;;;;;;;;5.69;100.00;95316.44;5064569;28;19951;-65
2023/12/22 01:16:56;;;;;;;;;;;;;;;5.59;100.00;95314.34;5064769;28;20005;-73
2023/12/22 01:19:22;;;;;;;;;;;;;;;5.52;100.00;95324.00;5064551;28;19958;-73
2023/12/22 01:21:49;;;;;;;;;;;;;;;5.45;100.00;95350.06;5064452;28;20134;-73
2023/12/22 01:24:15;;;;;;;;;;;;;;;5.43;100.00;95346.88;5064736;28;20239;-73
2023/12/22 01:26:41;;;;;;;;;;;;;;;5.40;100.00;95357.72;5064215;28;19965;-72
2023/12/22 01:29:07;;;;;;;;;;;;;;;5.34;100.00;95360.38;5064633;28;19953;-72
2023/12/22 01:31:32;;;;;;;;;;;;;;;5.27;100.00;95369.00;5063800;28;19955;-68
2023/12/22 01:33:58;;;;;;;;;;;;;;;5.23;100.00;95362.63;5064121;28;19957;-67
2023/12/22 01:36:24;;;;;;;;;;;;;;;5.17;100.00;95350.47;5064069;28;19957;-67
2023/12/22 01:38:50;;;;;;;;;;;;;;;5.12;100.00;95347.69;5064620;28;19954;-68
2023/12/22 01:41:16;;;;;;;;;;;;;;;5.05;100.00;95341.75;5064137;28;19974;-68
2023/12/22 01:43:42;;;;;;;;;;;;;;;5.02;100.00;95340.38;5064153;28;19958;-67
2023/12/22 01:46:08;;;;;;;;;;;;;;;5.00;100.00;95347.59;5064166;28;19955;-67
2023/12/22 01:48:35;;;;;;;;;;;;;;;5.02;100.00;95352.59;5064240;28;20242;-67
2023/12/22 01:51:01;;;;;;;;;;;;;;;5.03;100.00;95349.75;5064496;28;19955;-76
2023/12/22 01:53:27;;;;;;;;;;;;;;;5.03;100.00;95349.75;5063661;28;19969;-67
2023/12/22 01:55:54;;;;;;;;;;;;;;;5.01;100.00;95367.34;5064199;28;19959;-67
2023/12/22 01:58:20;;;;;;;;;;;;;;;5.01;100.00;95382.16;5063937;28;19958;-68
2023/12/22 02:00:46;;;;;;;;;;;;;;;5.01;100.00;95376.97;5063577;28;19971;-68
2023/12/22 02:03:12;;;;;;;;;;;;;;;5.01;100.00;95382.94;5063762;28;19958;-68
2023/12/22 02:05:40;;;;;;;;;;;;;;;5.04;100.00;95376.53;5066936;28;19961;-68
2023/12/22 02:08:06;;;;;;;;;;;;;;;5.06;100.00;95370.16;5068137;28;19958;-77
2023/12/22 02:10:32;;;;;;;;;;;;;;;5.08;100.00;95369.91;5067540;28;19951;-74
2023/12/22 02:12:58;;;;;;;;;;;;;;;5.11;100.00;95340.13;5068023;28;19969;-68
2023/12/22 02:15:24;;;;;;;;;;;;;;;5.13;100.00;95331.13;5067848;28;20256;-68
2023/12/22 02:18:23;;;;;;;;;;;;;;;5.17;100.00;95329.69;5068044;28;20022;-68
2023/12/22 02:20:49;;;;;;;;;;;;;;;5.18;100.00;95344.25;5023869;28;19965;-68
2023/12/22 02:23:14;;;;;;;;;;;;;;;5.19;100.00;95340.66;5067502;28;19959;-69
2023/12/22 02:25:40;;;;;;;;;;;;;;;5.22;100.00;95350.63;5067719;28;19962;-69
2023/12/22 02:28:10;;;;;;;;;;;;;;;5.27;100.00;95355.19;5067589;28;19955;-73
2023/12/22 02:30:46;;;;;;;;;;;;;;;5.30;100.00;95372.97;5067549;28;19958;-75
2023/12/22 02:33:14;;;;;;;;;;;;;;;5.33;100.00;95375.16;5049571;28;19962;-76
2023/12/22 02:35:41;;;;;;;;;;;;;;;5.35;100.00;95386.13;5067619;28;20248;-76
2023/12/22 02:38:07;;;;;;;;;;;;;;;5.35;100.00;95386.13;5067698;28;19956;-75
2023/12/22 02:40:34;;;;;;;;;;;;;;;5.36;100.00;95381.75;5067052;28;19957;-74
2023/12/22 02:43:01;;;;;;;;;;;;;;;5.37;100.00;95385.94;5067558;28;20213;-74
2023/12/22 02:45:27;;;;;;;;;;;;;;;5.37;100.00;95386.72;5067539;28;19960;-71
2023/12/22 02:47:53;;;;;;;;;;;;;;;5.37;100.00;95389.31;5067727;28;20164;-76
2023/12/22 02:50:19;;;;;;;;;;;;;;;5.41;100.00;95366.31;5067072;28;19958;-76
2023/12/22 02:52:45;;;;;;;;;;;;;;;5.43;100.00;95390.28;5067023;28;19968;-75
2023/12/22 02:55:11;;;;;;;;;;;;;;;5.40;100.00;95406.31;5067377;28;19964;-75
2023/12/22 02:57:36;;;;;;;;;;;;;;;5.36;100.00;95397.34;5067158;28;19962;-76
2023/12/22 03:00:02;;;;;;;;;;;;;;;5.31;100.00;95386.75;5067056;28;20019;-74
2023/12/22 03:02:30;;;;;;;;;;;;;;;5.28;100.00;95388.78;5067294;28;19948;-76
2023/12/22 03:04:56;;;;;;;;;;;;;;;5.26;100.00;95377.78;5067297;28;19956;-67
2023/12/22 03:07:22;;;;;;;;;;;;;;;5.24;100.00;95374.59;5067049;28;20021;-72
2023/12/22 03:09:47;;;;;;;;;;;;;;;5.23;100.00;95386.03;5065720;28;19974;-72
2023/12/22 03:12:13;;;;;;;;;;;;;;;5.23;100.00;95399.03;5065807;28;19961;-72
2023/12/22 03:14:39;;;;;;;;;;;;;;;5.22;100.00;95407.03;5049269;28;20236;-72
2023/12/22 03:17:05;;;;;;;;;;;;;;;5.20;100.00;95404.63;5065903;28;20023;-72
2023/12/22 03:19:32;;;;;;;;;;;;;;;5.19;100.00;95384.06;5066869;28;19954;-72
2023/12/22 03:21:58;;;;;;;;;;;;;;;5.18;100.00;95398.06;5066842;28;19956;-75
2023/12/22 03:24:24;;;;;;;;;;;;;;;5.21;100.00;95397.66;5066487;28;19957;-67
2023/12/22 03:26:50;;;;;;;;;;;;;;;5.22;100.00;95383.63;5066506;28;19974;-68
2023/12/22 03:29:17;;;;;;;;;;;;;;;5.25;100.00;95376.22;5066539;28;19957;-68
2023/12/22 03:31:43;;;;;;;;;;;;;;;5.28;100.00;95375.00;5066508;28;20116;-67
2023/12/22 03:34:09;;;;;;;;;;;;;;;5.34;100.00;95388.97;5066582;28;19959;-68
2023/12/22 03:36:35;;;;;;;;;;;;;;;5.37;100.00;95378.13;5066568;28;20178;-68
2023/12/22 03:39:01;;;;;;;;;;;;;;;5.41;100.00;95361.88;5066515;28;19964;-68
2023/12/22 03:41:27;;;;;;;;;;;;;;;5.42;100.00;95358.28;5066439;28;19959;-74
2023/12/22 03:43:52;;;;;;;;;;;;;;;5.42;100.00;95373.91;5066690;28;19965;-75
2023/12/22 03:46:18;;;;;;;;;;;;;;;5.41;100.00;95374.88;5066383;28;19955;-74
2023/12/22 03:48:44;;;;;;;;;;;;;;;5.41;100.00;95371.50;5066739;28;19967;-74
2023/12/22 03:51:11;;;;;;;;;;;;;;;5.41;100.00;95372.28;5066302;28;19956;-76
2023/12/22 03:53:37;;;;;;;;;;;;;;;5.44;100.00;95368.50;5065979;28;19962;-74
2023/12/22 03:56:03;;;;;;;;;;;;;;;5.47;100.00;95384.44;5065572;28;20021;-74
2023/12/22 03:58:30;;;;;;;;;;;;;;;5.51;100.00;95390.03;5066037;28;19956;-77
2023/12/22 04:00:56;;;;;;;;;;;;;;;5.51;100.00;95365.84;5065981;28;19952;-72
2023/12/22 04:03:22;;;;;;;;;;;;;;;5.55;100.00;95367.78;5066060;28;19959;-76
2023/12/22 04:05:48;;;;;;;;;;;;;;;5.55;100.00;95365.19;5066132;28;19998;-76
2023/12/22 04:08:13;;;;;;;;;;;;;;;5.56;100.00;95361.56;5065888;28;19969;-76
2023/12/22 04:10:39;;;;;;;;;;;;;;;5.58;100.00;95377.75;5065888;28;20265;-75
2023/12/22 04:13:05;;;;;;;;;;;;;;;5.58;100.00;95385.56;5065268;28;19999;-77
2023/12/22 04:15:31;;;;;;;;;;;;;;;5.60;100.00;95386.16;5066014;28;19998;-75
2023/12/22 04:17:57;;;;;;;;;;;;;;;5.62;100.00;95398.94;5065413;28;19958;-74
2023/12/22 04:20:23;;;;;;;;;;;;;;;5.62;100.00;95391.94;5065318;28;20138;-74
2023/12/22 04:22:49;;;;;;;;;;;;;;;5.64;100.00;95389.13;5065345;28;20260;-74
2023/12/22 04:25:15;;;;;;;;;;;;;;;5.66;100.00;95371.50;5065081;28;19952;-74
2023/12/22 04:27:42;;;;;;;;;;;;;;;5.68;100.00;95393.69;5065034;28;19955;-74
2023/12/22 04:30:08;;;;;;;;;;;;;;;5.72;100.00;95403.69;5047073;28;19953;-75
2023/12/22 04:32:34;;;;;;;;;;;;;;;5.70;100.00;95433.28;5065340;28;20258;-74
2023/12/22 04:34:59;;;;;;;;;;;;;;;5.67;100.00;95427.72;5064926;28;19953;-72
2023/12/22 04:37:25;;;;;;;;;;;;;;;5.62;100.00;95427.56;5065435;28;19958;-73
2023/12/22 04:39:51;;;;;;;;;;;;;;;5.58;100.00;95434.97;5065438;28;19961;-76
2023/12/22 04:42:18;;;;;;;;;;;;;;;5.54;100.00;95439.00;5064793;28;19940;-76
2023/12/22 04:44:44;;;;;;;;;;;;;;;5.52;100.00;95446.22;5065518;28;19974;-76
2023/12/22 04:47:10;;;;;;;;;;;;;;;5.51;100.00;95438.66;5064804;28;20237;-76
2023/12/22 04:49:35;;;;;;;;;;;;;;;5.45;100.00;95445.47;5064830;28;19963;-75
2023/12/22 04:52:01;;;;;;;;;;;;;;;5.44;100.00;95454.28;5064744;28;19953;-77
2023/12/22 04:54:27;;;;;;;;;;;;;;;5.40;100.00;95463.50;5064921;28;20045;-71
2023/12/22 04:56:53;;;;;;;;;;;;;;;5.36;100.00;95470.94;5065043;28;19964;-69
2023/12/22 04:59:19;;;;;;;;;;;;;;;5.36;100.00;95452.72;5065129;28;19964;-69
2023/12/22 05:01:45;;;;;;;;;;;;;;;5.35;100.00;95458.91;5065046;28;19961;-69
2023/12/22 05:04:11;;;;;;;;;;;;;;;5.35;100.00;95463.31;5064322;28;19963;-67
2023/12/22 05:06:37;;;;;;;;;;;;;;;5.34;100.00;95464.34;5064884;28;20258;-68
2023/12/22 05:09:03;;;;;;;;;;;;;;;5.36;100.00;95470.94;5064799;28;19962;-67
2023/12/22 05:11:29;;;;;;;;;;;;;;;5.38;100.00;95445.53;5063546;28;19948;-74
2023/12/22 05:13:55;;;;;;;;;;;;;;;5.41;100.00;95437.28;5064944;28;19962;-73
2023/12/22 05:16:20;;;;;;;;;;;;;;;5.45;100.00;95442.88;5064285;28;19949;-71
2023/12/22 05:18:46;;;;;;;;;;;;;;;5.49;100.00;95455.22;5064319;28;19978;-70
2023/12/22 05:21:15;;;;;;;;;;;;;;;5.50;100.00;95435.22;5064312;28;20239;-71
2023/12/22 05:23:41;;;;;;;;;;;;;;;5.49;100.00;95447.44;5064306;28;19957;-70
2023/12/22 05:26:08;;;;;;;;;;;;;;;5.50;100.00;95443.03;5064326;28;19954;-71
2023/12/22 05:28:33;;;;;;;;;;;;;;;5.55;100.00;95445.03;5064358;28;19957;-71
2023/12/22 05:30:59;;;;;;;;;;;;;;;5.58;100.00;95447.19;5064377;28;19966;-72
2023/12/22 05:33:25;;;;;;;;;;;;;;;5.57;100.00;95450.81;5064011;28;19972;-71
2023/12/22 05:35:51;;;;;;;;;;;;;;;5.58;100.00;95457.59;5064336;28;19958;-71
2023/12/22 05:38:17;;;;;;;;;;;;;;;5.59;100.00;95452.19;5064405;28;19960;-71
2023/12/22 05:40:43;;;;;;;;;;;;;;;5.62;100.00;95443.16;5064053;28;20020;-71
2023/12/22 05:43:09;;;;;;;;;;;;;;;5.64;100.00;95446.34;5064338;28;20056;-71
2023/12/22 05:45:35;;;;;;;;;;;;;;;5.66;100.00;95452.13;5064347;28;19958;-72
2023/12/22 05:48:01;;;;;;;;;;;;;;;5.69;100.00;95467.31;5064528;28;19962;-72
2023/12/22 05:50:26;;;;;;;;;;;;;;;5.72;100.00;95460.91;5064127;28;19955;-71
2023/12/22 05:52:52;;;;;;;;;;;;;;;5.72;100.00;95484.31;5063850;28;19977;-68
2023/12/22 05:55:18;;;;;;;;;;;;;;;5.73;100.00;95462.47;5064001;28;20132;-67
2023/12/22 05:57:44;;;;;;;;;;;;;;;5.77;100.00;95463.66;5063950;28;20239;-67
2023/12/22 06:00:11;;;;;;;;;;;;;;;5.78;100.00;95484.25;5064169;28;19955;-68
2023/12/22 06:02:38;;;;;;;;;;;;;;;5.81;100.00;95472.63;5064044;28;20238;-69
2023/12/22 06:05:04;;;;;;;;;;;;;;;5.83;100.00;95462.81;5063731;28;19974;-69
2023/12/22 06:07:30;;;;;;;;;;;;;;;5.86;100.00;95481.41;5064062;28;20275;-75
2023/12/22 06:09:56;;;;;;;;;;;;;;;5.87;100.00;95492.59;5064059;28;19959;-75
2023/12/22 06:12:22;;;;;;;;;;;;;;;5.86;100.00;95499.63;5063988;28;19932;-74
2023/12/22 06:14:47;;;;;;;;;;;;;;;5.86;100.00;95486.59;5063605;28;20281;-74
2023/12/22 06:17:13;;;;;;;;;;;;;;;5.84;100.00;95472.22;5063934;28;20017;-75
2023/12/22 06:19:39;;;;;;;;;;;;;;;5.82;100.00;95521.06;5064064;28;20027;-73
2023/12/22 06:22:05;;;;;;;;;;;;;;;5.74;100.00;95521.31;5063973;28;20233;-73
2023/12/22 06:24:31;;;;;;;;;;;;;;;5.63;100.00;95539.19;5063936;28;20233;-73
2023/12/22 06:26:57;;;;;;;;;;;;;;;5.48;100.00;95536.88;5064027;28;19951;-70
2023/12/22 06:29:23;;;;;;;;;;;;;;;5.36;100.00;95524.72;5063680;28;19967;-69
2023/12/22 06:31:50;;;;;;;;;;;;;;;5.24;100.00;95540.16;5063940;28;19997;-70
2023/12/22 06:34:16;;;;;;;;;;;;;;;5.17;100.00;95536.81;5063672;28;20233;-71
2023/12/22 06:36:42;;;;;;;;;;;;;;;5.11;100.00;95543.63;5063827;28;19956;-70
2023/12/22 06:39:08;;;;;;;;;;;;;;;5.07;100.00;95545.81;5063706;28;20143;-72
2023/12/22 06:41:34;;;;;;;;;;;;;;;5.07;100.00;95539.84;5063274;28;19940;-71
2023/12/22 06:44:00;;;;;;;;;;;;;;;5.09;100.00;95548.22;5063788;28;19988;-66
2023/12/22 06:46:26;;;;;;;;;;;;;;;5.13;100.00;95564.22;5063372;28;19963;-74
2023/12/22 06:48:53;;;;;;;;;;;;;;;5.16;100.00;95550.78;5063305;28;19960;-72
2023/12/22 06:51:23;;;;;;;;;;;;;;;5.19;100.00;95566.78;5064151;28;19956;-71
2023/12/22 06:53:49;;;;;;;;;;;;;;;5.23;100.00;95575.75;5067224;28;19971;-72
2023/12/22 06:56:19;;;;;;;;;;;;;;;5.23;100.00;95560.16;5067391;28;19955;-71
2023/12/22 06:58:49;;;;;;;;;;;;;;;5.24;100.00;95561.75;5067238;28;20249;-71
2023/12/22 07:01:19;;;;;;;;;;;;;;;5.25;100.00;95567.78;5067150;28;19959;-71
2023/12/22 07:03:48;;;;;;;;;;;;;;;5.26;100.00;95569.34;5067661;28;19950;-76
2023/12/22 07:06:17;;;;;;;;;;;;;;;5.28;100.00;95582.94;5066196;28;20428;-75
2023/12/22 07:08:43;;;;;;;;;;;;;;;5.29;100.00;95577.53;5067057;28;20030;-75
2023/12/22 07:11:09;;;;;;;;;;;;;;;5.28;100.00;95569.94;5066660;28;19954;-75
2023/12/22 07:13:35;;;;;;;;;;;;;;;5.27;100.00;95574.34;5067235;28;19968;-75
2023/12/22 07:16:02;;;;;;;;;;;;;;;5.28;100.00;95586.34;5067216;28;19956;-75
2023/12/22 07:18:30;;;;;;;;;;;;;;;5.27;100.00;95591.72;5066673;28;20236;-75
2023/12/22 07:20:57;;;;;;;;;;;;;;;5.27;100.00;95595.16;5066359;28;19953;-69
2023/12/22 07:23:23;;;;;;;;;;;;;;;5.27;100.00;95592.56;5066865;28;20248;-72
2023/12/22 07:25:48;;;;;;;;;;;;;;;5.28;100.00;95588.94;5066694;28;19992;-66
2023/12/22 07:28:15;;;;;;;;;;;;;;;5.28;100.00;95599.34;5065321;28;19957;-66
2023/12/22 07:30:41;;;;;;;;;;;;;;;5.29;100.00;95595.75;5067275;28;19966;-66
2023/12/22 07:33:07;;;;;;;;;;;;;;;5.28;100.00;95595.94;5066574;28;19970;-66
2023/12/22 07:35:33;;;;;;;;;;;;;;;5.26;100.00;95603.16;5066141;28;19977;-66
2023/12/22 07:37:59;;;;;;;;;;;;;;;5.28;100.00;95595.94;5066599;28;20258;-66
2023/12/22 07:40:25;;;;;;;;;;;;;;;5.28;100.00;95593.34;5066477;28;20021;-75
2023/12/22 07:42:51;;;;;;;;;;;;;;;5.28;100.00;95601.13;5066717;28;19964;-78
2023/12/22 07:45:16;;;;;;;;;;;;;;;5.28;100.00;95598.53;5066162;28;19952;-78
2023/12/22 07:47:42;;;;;;;;;;;;;;;5.30;100.00;95583.53;5066177;28;19963;-78
2023/12/22 07:50:08;;;;;;;;;;;;;;;5.32;100.00;95607.53;5065804;28;19983;-77
2023/12/22 07:52:37;;;;;;;;;;;;;;;5.35;100.00;95598.50;5047965;28;19974;-77
2023/12/22 07:55:04;;;;;;;;;;;;;;;5.38;100.00;95595.53;5066283;28;19965;-76
2023/12/22 07:57:30;;;;;;;;;;;;;;;5.41;100.00;95595.09;5066131;28;20170;-72
2023/12/22 07:59:56;;;;;;;;;;;;;;;5.45;100.00;95598.88;5065810;28;19957;-72
2023/12/22 08:02:22;;;;;;;;;;;;;;;5.48;100.00;95601.06;5066117;28;20055;-73
2023/12/22 08:04:50;;;;;;;;;;;;;;;5.54;100.00;95583.84;5065553;28;19962;-73
2023/12/22 08:07:16;;;;;;;;;;;;;;;5.58;100.00;95601.41;5065617;28;19962;-73
2023/12/22 08:09:42;;;;;;;;;;;;;;;5.62;100.00;95594.00;5065558;28;19960;-73
2023/12/22 08:12:08;;;;;;;;;;;;;;;5.64;100.00;95597.19;5066187;28;20001;-73
2023/12/22 08:14:34;;;;;;;;;;;;;;;5.68;100.00;95609.56;5065554;28;19966;-73
2023/12/22 08:16:59;;;;;;;;;;;;;;;5.71;100.00;95616.16;5065091;28;19967;-68
2023/12/22 08:19:25;;;;;;;;;;;;;;;5.76;100.00;95603.34;5065856;28;19955;-73
2023/12/22 08:21:57;;;;;;;;;;;;;;;5.78;100.00;95598.72;5065871;28;19954;-73
2023/12/22 08:24:23;;;;;;;;;;;;;;;5.81;100.00;95626.13;5065795;28;19957;-72
2023/12/22 08:26:49;;;;;;;;;;;;;;;5.79;100.00;95583.91;5065837;28;19952;-73
2023/12/22 08:29:15;;;;;;;;;;;;;;;5.80;100.00;95583.72;5065327;28;19967;-73
2023/12/22 08:31:41;;;;;;;;;;;;;;;5.81;100.00;95600.91;5065518;28;20155;-72
2023/12/22 08:34:07;;;;;;;;;;;;;;;5.82;100.00;95597.31;5065722;28;19957;-68
2023/12/22 08:36:33;;;;;;;;;;;;;;;5.83;100.00;95579.88;5065766;28;19963;-74
2023/12/22 08:38:59;;;;;;;;;;;;;;;5.83;100.00;95585.88;5065743;28;19957;-73
2023/12/22 08:41:25;;;;;;;;;;;;;;;5.83;100.00;95587.69;5065363;28;19953;-73
2023/12/22 08:43:51;;;;;;;;;;;;;;;5.83;100.00;95569.47;5065066;28;20025;-73
2023/12/22 08:46:18;;;;;;;;;;;;;;;5.86;100.00;95589.91;5065058;28;19962;-73
2023/12/22 08:48:43;;;;;;;;;;;;;;;5.89;100.00;95573.84;5065088;28;19963;-73
2023/12/22 08:51:09;;;;;;;;;;;;;;;5.93;100.00;95574.22;5047043;28;20028;-73
2023/12/22 08:53:37;;;;;;;;;;;;;;;5.97;100.00;95578.84;5065172;28;20031;-68
2023/12/22 08:56:03;;;;;;;;;;;;;;;5.99;100.00;95586.44;5065176;28;19959;-72
2023/12/22 08:58:29;;;;;;;;;;;;;;;6.00;100.00;95578.41;5064547;28;19949;-72
2023/12/22 09:00:55;;;;;;;;;;;;;;;6.01;100.00;95585.22;5065086;28;19954;-73
2023/12/22 09:03:21;;;;;;;;;;;;;;;6.03;100.00;95592.81;5065225;28;19979;-72
2023/12/22 09:05:50;;;;;;;;;;;;;;;6.05;100.00;95604.63;5065174;28;20286;-73
2023/12/22 09:08:16;;;;;;;;;;;;;;;6.06;100.00;95615.81;5065005;28;19954;-73
2023/12/22 09:10:42;;;;;;;;;;;;;;;6.03;100.00;95616.25;5064562;28;19960;-72
2023/12/22 09:13:07;;;;;;;;;;;;;;;6.01;100.00;95610.44;5064681;28;19956;-72
2023/12/22 09:15:33;;;;;;;;;;;;;;;5.99;100.00;95607.25;5064009;28;19957;-76
2023/12/22 09:17:59;;;;;;;;;;;;;;;5.99;100.00;95599.44;5064560;28;19959;-76
2023/12/22 09:20:25;;;;;;;;;;;;;;;5.99;100.00;95617.66;5064638;28;19952;-76
2023/12/22 09:22:51;;;;;;;;;;;;;;;6.00;100.00;95627.84;5064723;28;19946;-76
2023/12/22 09:25:17;;;;;;;;;;;;;;;6.00;100.00;95632.25;5064525;28;20002;-76
2023/12/22 09:27:42;;;;;;;;;;;;;;;5.97;100.00;95649.09;5064683;28;19966;-76
2023/12/22 09:30:08;;;;;;;;;;;;;;;5.96;100.00;95649.31;5064611;28;20037;-73
2023/12/22 09:32:34;;;;;;;;;;;;;;;5.93;100.00;95639.28;5064032;28;20158;-75
2023/12/22 09:35:00;;;;;;;;;;;;;;;5.92;100.00;95645.47;5064501;28;19964;-74
2023/12/22 09:37:26;;;;;;;;;;;;;;;5.91;100.00;95647.28;5064458;28;19958;-74
2023/12/22 09:39:52;;;;;;;;;;;;;;;5.89;100.00;95644.09;5064388;28;19964;-74
2023/12/22 09:42:19;;;;;;;;;;;;;;;5.88;100.00;95634.72;5064110;28;19960;-75
2023/12/22 09:44:48;;;;;;;;;;;;;;;5.87;100.00;95643.50;5064595;28;19956;-74
2023/12/22 09:47:15;;;;;;;;;;;;;;;5.87;100.00;95646.91;5064124;28;19959;-74
2023/12/22 09:49:42;;;;;;;;;;;;;;;5.87;100.00;95646.91;5064261;28;19969;-71
2023/12/22 09:52:08;;;;;;;;;;;;;;;5.90;100.00;95645.72;5064170;28;19950;-68
2023/12/22 09:54:36;;;;;;;;;;;;;;;5.92;100.00;95641.06;5064182;28;19971;-68
2023/12/22 09:57:02;;;;;;;;;;;;;;;5.94;100.00;95644.25;5064351;28;19955;-68
2023/12/22 09:59:28;;;;;;;;;;;;;;;5.95;100.00;95653.72;5064267;28;20019;-68
2023/12/22 10:01:54;;;;;;;;;;;;;;;5.98;100.00;95663.69;5063730;28;19947;-68
2023/12/22 10:04:20;;;;;;;;;;;;;;;6.00;100.00;95634.88;5064292;28;19969;-68
2023/12/22 10:06:47;;;;;;;;;;;;;;;6.01;100.00;95629.47;5063797;28;20023;-76
2023/12/22 10:09:14;;;;;;;;;;;;;;;6.02;100.00;95631.03;5063745;28;19973;-74
2023/12/22 10:11:43;;;;;;;;;;;;;;;6.05;100.00;95611.63;5063757;28;19962;-72
2023/12/22 10:14:09;;;;;;;;;;;;;;;6.07;100.00;95622.63;5063800;28;19969;-72
2023/12/22 10:16:36;;;;;;;;;;;;;;;6.08;100.00;95616.41;5063830;28;20236;-72
2023/12/22 10:19:03;;;;;;;;;;;;;;;6.12;100.00;95614.19;5064099;28;19986;-72
2023/12/22 10:21:30;;;;;;;;;;;;;;;6.12;100.00;95638.41;5063952;28;19955;-72
2023/12/22 10:23:57;;;;;;;;;;;;;;;6.12;100.00;95638.41;5064029;28;20133;-72
2023/12/22 10:26:23;;;;;;;;;;;;;;;6.12;100.00;95645.41;5064523;28;19959;-71
2023/12/22 10:28:49;;;;;;;;;;;;;;;6.12;100.00;95638.41;5067898;28;19978;-74
2023/12/22 10:31:15;;;;;;;;;;;;;;;6.12;100.00;95635.81;5068103;28;20006;-74
2023/12/22 10:33:42;;;;;;;;;;;;;;;6.11;100.00;95642.03;5049488;28;19962;-73
2023/12/22 10:36:08;;;;;;;;;;;;;;;6.10;100.00;95641.22;5067431;28;19959;-74
2023/12/22 10:38:37;;;;;;;;;;;;;;;6.09;100.00;95644.03;5067415;28;20153;-74
2023/12/22 10:41:03;;;;;;;;;;;;;;;6.08;100.00;95645.81;5067420;28;19963;-73
2023/12/22 10:43:29;;;;;;;;;;;;;;;6.05;100.00;95638.44;5067466;28;20230;-66
2023/12/22 10:45:55;;;;;;;;;;;;;;;6.03;100.00;95629.25;5067694;28;20016;-72
2023/12/22 10:48:22;;;;;;;;;;;;;;;6.00;100.00;95627.84;5067469;28;19968;-72
2023/12/22 10:50:48;;;;;;;;;;;;;;;5.99;100.00;95628.88;5049521;28;19958;-71
2023/12/22 10:53:14;;;;;;;;;;;;;;;5.99;100.00;95631.47;5068125;28;19976;-72
2023/12/22 10:55:40;;;;;;;;;;;;;;;5.99;100.00;95620.28;5067332;28;20250;-72
2023/12/22 10:58:06;;;;;;;;;;;;;;;5.97;100.00;95606.66;5066803;28;19941;-71
2023/12/22 11:00:33;;;;;;;;;;;;;;;5.96;100.00;95616.25;5066847;28;20499;-71
2023/12/22 11:03:02;;;;;;;;;;;;;;;5.95;100.00;95611.28;5067611;28;19962;-73
2023/12/22 11:05:28;;;;;;;;;;;;;;;5.94;100.00;95601.84;5066882;28;20108;-66
2023/12/22 11:07:54;;;;;;;;;;;;;;;5.91;100.00;95600.47;5066761;28;20006;-66
2023/12/22 11:10:21;;;;;;;;;;;;;;;5.91;100.00;95597.84;5066894;28;19960;-66
2023/12/22 11:12:47;;;;;;;;;;;;;;;5.90;100.00;95602.28;5066502;28;19954;-66
2023/12/22 11:15:14;;;;;;;;;;;;;;;5.90;100.00;95599.66;5066932;28;19976;-67
2023/12/22 11:17:41;;;;;;;;;;;;;;;5.90;100.00;95596.28;5066895;28;19969;-66
2023/12/22 11:20:12;;;;;;;;;;;;;;;5.92;100.00;95598.66;5066866;28;19948;-68
2023/12/22 11:22:38;;;;;;;;;;;;;;;5.92;100.00;95601.25;5066994;28;19961;-68
2023/12/22 11:25:05;;;;;;;;;;;;;;;5.92;100.00;95598.66;5066837;28;19950;-71
2023/12/22 11:27:32;;;;;;;;;;;;;;;5.93;100.00;95588.03;5066301;28;19970;-71
2023/12/22 11:30:00;;;;;;;;;;;;;;;5.93;100.00;95584.66;5066799;28;19951;-71
2023/12/22 11:32:28;;;;;;;;;;;;;;;5.93;100.00;95577.63;5066304;28;19969;-71
2023/12/22 11:34:54;;;;;;;;;;;;;;;5.93;100.00;95577.63;5066305;28;19965;-70
2023/12/22 11:37:20;;;;;;;;;;;;;;;5.93;100.00;95569.03;5065842;28;19969;-71
2023/12/22 11:39:47;;;;;;;;;;;;;;;5.93;100.00;95579.44;5066428;28;19958;-73
2023/12/22 11:42:18;;;;;;;;;;;;;;;5.95;100.00;95560.03;5066023;28;19966;-73
2023/12/22 11:44:44;;;;;;;;;;;;;;;5.95;100.00;95549.63;5066495;28;20232;-73
2023/12/22 11:47:11;;;;;;;;;;;;;;;5.96;100.00;95548.59;5066325;28;20126;-73
2023/12/22 11:49:37;;;;;;;;;;;;;;;5.95;100.00;95534.00;5066372;28;19952;-72
2023/12/22 11:52:13;;;;;;;;;;;;;;;5.94;100.00;95531.59;5066367;28;20272;-72
2023/12/22 11:54:49;;;;;;;;;;;;;;;5.93;100.00;95524.78;5066460;28;19976;-73
2023/12/22 11:57:27;;;;;;;;;;;;;;;5.90;100.00;95511.19;5065935;28;19954;-74
2023/12/22 11:59:57;;;;;;;;;;;;;;;5.89;100.00;95516.59;5065997;28;20140;-68
2023/12/22 12:02:23;;;;;;;;;;;;;;;5.92;100.00;95513.56;5065929;28;19964;-68
2023/12/22 12:04:50;;;;;;;;;;;;;;;5.95;100.00;95515.00;5066005;28;19998;-68
2023/12/22 12:07:34;;;;;;;;;;;;;;;5.96;100.00;95500.97;5065619;28;19957;-69
2023/12/22 12:10:00;;;;;;;;;;;;;;;5.96;100.00;95506.16;5065973;28;19956;-69
2023/12/22 12:12:27;;;;;;;;;;;;;;;5.94;100.00;95490.72;5065508;28;20057;-69
2023/12/22 12:14:57;;;;;;;;;;;;;;;5.93;100.00;95493.56;5048326;28;19976;-77
2023/12/22 12:17:23;;;;;;;;;;;;;;;5.93;100.00;95485.75;5065929;28;19965;-70
2023/12/22 12:19:49;;;;;;;;;;;;;;;5.93;100.00;95485.75;5065923;28;19957;-74
2023/12/22 12:22:15;;;;;;;;;;;;;;;5.94;100.00;95475.13;5065457;28;19958;-76
2023/12/22 12:24:41;;;;;;;;;;;;;;;5.93;100.00;95460.53;5065477;28;19957;-75
2023/12/22 12:27:07;;;;;;;;;;;;;;;5.95;100.00;95465.56;5065517;28;20251;-75
2023/12/22 12:29:33;;;;;;;;;;;;;;;5.96;100.00;95454.91;5065495;28;19979;-75
2023/12/22 12:32:03;;;;;;;;;;;;;;;5.96;100.00;95452.31;5065510;28;20176;-74
2023/12/22 12:34:29;;;;;;;;;;;;;;;5.99;100.00;95440.72;5065432;28;19966;-65
2023/12/22 12:36:55;;;;;;;;;;;;;;;6.02;100.00;95446.25;5065573;28;19965;-74
2023/12/22 12:39:22;;;;;;;;;;;;;;;6.04;100.00;95438.25;5065382;28;19950;-75
2023/12/22 12:41:52;;;;;;;;;;;;;;;6.06;100.00;95444.03;5065625;28;20141;-75
2023/12/22 12:44:20;;;;;;;;;;;;;;;6.08;100.00;95435.00;5064953;28;20151;-75